createdAt,value
2018-10-09T00:02:00.981Z,22.87
2018-10-09T00:04:35.520Z,26.17
2018-10-09T00:07:10.038Z,25.30
2018-10-09T00:09:44.712Z,25.47
2018-10-09T00:12:19.303Z,23.67
2018-10-09T00:14:53.719Z,20.00
2018-10-09T00:17:28.212Z,22.27
2018-10-09T00:20:02.838Z,21.37
2018-10-09T00:22:37.495Z,23.93
2018-10-09T00:25:12.282Z,26.17
2018-10-09T00:27:46.788Z,25.67
2018-10-09T00:30:21.377Z,26.77
2018-10-09T00:32:56.387Z,20.20
2018-10-09T00:35:31.192Z,22.90
2018-10-09T00:38:06.036Z,21.77
2018-10-09T00:40:40.928Z,26.80
2018-10-09T00:43:15.713Z,26.37
2018-10-09T00:45:50.784Z,21.80
2018-10-09T00:48:25.265Z,29.27
2018-10-09T00:50:59.759Z,21.80
2018-10-09T00:53:34.191Z,26.40
2018-10-09T00:56:09.163Z,28.43
2018-10-09T00:58:43.768Z,27.57
2018-10-09T01:01:18.408Z,22.80
2018-10-09T01:03:52.956Z,18.67
2018-10-09T01:06:27.355Z,21.93
2018-10-09T01:09:01.921Z,24.33
2018-10-09T01:11:36.928Z,21.40
2018-10-09T01:14:11.604Z,20.63
2018-10-09T01:16:46.360Z,21.97
2018-10-09T01:19:20.801Z,24.57
2018-10-09T01:21:55.356Z,25.87
2018-10-09T01:24:29.904Z,27.50
2018-10-09T01:27:04.362Z,26.87
2018-10-09T01:29:39.282Z,32.67
2018-10-09T01:32:13.915Z,26.43
2018-10-09T01:34:48.570Z,28.20
2018-10-09T01:37:23.346Z,28.63
2018-10-09T01:39:57.834Z,28.00
2018-10-09T01:42:32.445Z,27.20
2018-10-09T01:45:07.313Z,26.83
2018-10-09T01:47:42.156Z,29.20
2018-10-09T01:50:16.746Z,33.57
2018-10-09T01:52:51.127Z,28.30
2018-10-09T01:55:26.047Z,32.20
2018-10-09T01:58:00.677Z,29.60
2018-10-09T02:00:35.274Z,32.27
2018-10-09T02:03:10.452Z,32.70
2018-10-09T02:05:45.428Z,27.93
2018-10-09T02:08:20.098Z,32.53
2018-10-09T02:10:54.942Z,30.03
2018-10-09T02:13:29.879Z,35.20
2018-10-09T02:16:04.684Z,31.47
2018-10-09T02:18:39.212Z,31.80
2018-10-09T02:21:13.799Z,29.60
2018-10-09T02:23:48.394Z,35.90
2018-10-09T02:26:22.879Z,34.53
2018-10-09T02:28:57.350Z,32.00
2018-10-09T02:31:31.891Z,34.40
2018-10-09T02:34:06.647Z,36.67
2018-10-09T02:36:41.508Z,33.83
2018-10-09T02:39:16.223Z,30.17
2018-10-09T02:41:50.985Z,32.90
2018-10-09T02:44:25.863Z,31.90
2018-10-09T02:47:00.473Z,30.30
2018-10-09T02:49:34.973Z,34.27
2018-10-09T02:52:09.410Z,34.50
2018-10-09T02:54:43.902Z,33.17
2018-10-09T02:57:18.385Z,37.53
2018-10-09T02:59:52.878Z,34.80
2018-10-09T03:02:27.714Z,39.90
2018-10-09T03:05:02.470Z,33.43
2018-10-09T03:07:37.011Z,33.10
2018-10-09T03:10:11.926Z,31.53
2018-10-09T03:12:46.368Z,33.40
2018-10-09T03:15:20.827Z,35.30
2018-10-09T03:18:16.077Z,33.10
2018-10-09T03:20:50.854Z,30.27
2018-10-09T03:23:25.612Z,33.07
2018-10-09T03:26:00.308Z,30.73
2018-10-09T03:28:35.234Z,41.17
2018-10-09T03:31:09.647Z,26.20
2018-10-09T03:33:44.284Z,26.63
2018-10-09T03:36:19.566Z,23.67
2018-10-09T03:38:54.134Z,24.10
2018-10-09T03:41:28.827Z,23.67
2018-10-09T03:44:03.357Z,25.90
2018-10-09T03:46:37.966Z,25.87
2018-10-09T03:49:12.627Z,28.70
2018-10-09T03:51:47.613Z,21.03
2018-10-09T03:54:22.249Z,20.43
2018-10-09T03:56:56.913Z,25.50
2018-10-09T03:59:31.958Z,22.83
2018-10-09T04:02:06.426Z,25.57
2018-10-09T04:04:41.071Z,23.83
2018-10-09T04:07:15.805Z,26.90
2018-10-09T04:09:50.335Z,27.53
2018-10-09T04:12:24.886Z,23.90
2018-10-09T04:14:59.421Z,19.47
2018-10-09T04:17:34.037Z,24.40
2018-10-09T04:20:08.936Z,23.37
2018-10-09T04:22:43.416Z,27.47
2018-10-09T04:25:18.119Z,24.70
2018-10-09T04:27:52.667Z,23.63
2018-10-09T04:30:27.294Z,28.70
2018-10-09T04:33:02.167Z,27.83
2018-10-09T04:35:36.954Z,25.63
2018-10-09T04:38:11.363Z,24.13
2018-10-09T04:40:45.870Z,25.20
2018-10-09T04:43:20.880Z,22.50
2018-10-09T04:45:55.325Z,30.40
2018-10-09T04:48:30.030Z,28.73
2018-10-09T04:51:04.704Z,29.77
2018-10-09T04:53:39.803Z,28.20
2018-10-09T04:56:14.916Z,27.17
2018-10-09T04:58:49.408Z,29.27
2018-10-09T05:01:23.993Z,24.13
2018-10-09T05:03:58.904Z,22.37
2018-10-09T05:06:33.794Z,26.07
2018-10-09T05:09:10.170Z,31.40
2018-10-09T05:11:46.984Z,29.00
2018-10-09T05:14:21.960Z,32.13
2018-10-09T05:16:56.525Z,28.37
2018-10-09T05:19:31.714Z,32.03
2018-10-09T05:22:06.308Z,28.13
2018-10-09T05:24:40.966Z,29.33
2018-10-09T05:27:15.512Z,25.70
2018-10-09T05:29:50.643Z,34.40
2018-10-09T05:32:25.488Z,30.30
2018-10-09T05:35:00.087Z,33.03
2018-10-09T05:37:34.833Z,33.73
2018-10-09T05:40:09.364Z,31.90
2018-10-09T05:42:43.961Z,32.70
2018-10-09T05:45:18.626Z,30.53
2018-10-09T05:47:53.138Z,34.73
2018-10-09T05:50:27.710Z,35.13
2018-10-09T05:53:02.334Z,29.90
2018-10-09T05:55:37.684Z,29.83
2018-10-09T05:58:12.302Z,32.23
2018-10-09T06:00:47.268Z,26.90
2018-10-09T06:03:21.816Z,30.37
2018-10-09T06:05:56.699Z,31.37
2018-10-09T06:08:31.423Z,29.60
2018-10-09T06:11:06.050Z,32.67
2018-10-09T06:13:41.084Z,31.37
2018-10-09T06:16:15.845Z,28.83
2018-10-09T06:18:50.506Z,30.03
2018-10-09T06:21:25.380Z,28.93
2018-10-09T06:24:00.152Z,30.33
2018-10-09T06:26:35.027Z,27.40
2018-10-09T06:29:09.617Z,27.33
2018-10-09T06:31:44.131Z,25.97
2018-10-09T06:34:18.762Z,24.37
2018-10-09T06:36:53.461Z,25.23
2018-10-09T06:42:34.058Z,26.40
2018-10-09T06:45:08.531Z,23.83
2018-10-09T06:47:43.286Z,24.87
2018-10-09T06:50:17.763Z,22.33
2018-10-09T06:52:52.389Z,25.57
2018-10-09T06:55:26.923Z,23.63
2018-10-09T06:58:01.483Z,22.33
2018-10-09T07:00:36.089Z,25.20
2018-10-09T07:03:11.590Z,21.60
2018-10-09T07:05:46.133Z,23.93
2018-10-09T07:08:20.633Z,21.77
2018-10-09T07:10:55.431Z,22.00
2018-10-09T07:13:29.864Z,19.83
2018-10-09T07:16:04.562Z,22.60
2018-10-09T07:18:39.465Z,19.83
2018-10-09T07:21:13.910Z,21.97
2018-10-09T07:23:48.495Z,22.37
2018-10-09T07:26:23.386Z,24.47
2018-10-09T07:28:57.895Z,23.30
2018-10-09T07:31:32.641Z,21.17
2018-10-09T07:34:07.670Z,22.70
2018-10-09T07:36:42.434Z,19.90
2018-10-09T07:39:16.964Z,25.53
2018-10-09T07:41:51.600Z,23.87
2018-10-09T07:44:26.130Z,20.10
2018-10-09T07:47:00.651Z,22.97
2018-10-09T07:49:35.688Z,22.97
2018-10-09T07:52:10.148Z,23.90
2018-10-09T07:54:44.986Z,24.27
2018-10-09T07:57:19.639Z,26.83
2018-10-09T07:59:54.321Z,27.73
2018-10-09T08:02:28.984Z,25.03
2018-10-09T08:05:03.629Z,26.73
2018-10-09T08:07:38.598Z,25.80
2018-10-09T08:10:13.100Z,24.97
2018-10-09T08:12:47.689Z,25.20
2018-10-09T08:15:22.208Z,26.53
2018-10-09T08:17:57.006Z,30.87
2018-10-09T08:20:31.708Z,28.07
2018-10-09T08:23:06.537Z,28.13
2018-10-09T08:25:41.123Z,25.90
2018-10-09T08:28:15.718Z,28.00
2018-10-09T08:30:50.308Z,29.23
2018-10-09T08:33:25.016Z,25.53
2018-10-09T08:35:59.474Z,27.10
2018-10-09T08:38:34.088Z,24.67
2018-10-09T08:41:08.641Z,26.13
2018-10-09T08:43:43.430Z,24.73
2018-10-09T08:46:18.056Z,25.93
2018-10-09T08:48:52.635Z,23.87
2018-10-09T08:51:27.172Z,28.70
2018-10-09T08:54:01.600Z,26.20
2018-10-09T08:56:36.186Z,24.67
2018-10-09T08:59:10.821Z,28.70
2018-10-09T09:01:45.364Z,25.07
2018-10-09T09:04:20.082Z,23.27
2018-10-09T09:06:54.760Z,24.90
2018-10-09T09:09:29.384Z,25.87
2018-10-09T09:12:03.924Z,23.40
2018-10-09T09:14:38.402Z,26.90
2018-10-09T09:17:12.919Z,22.07
2018-10-09T09:19:47.398Z,18.80
2018-10-09T09:22:23.448Z,23.77
2018-10-09T09:24:58.096Z,21.27
2018-10-09T09:27:32.840Z,18.67
2018-10-09T09:30:07.906Z,25.33
2018-10-09T09:32:42.305Z,26.90
2018-10-09T09:35:17.546Z,23.63
2018-10-09T09:37:52.528Z,24.93
2018-10-09T09:40:27.184Z,25.67
2018-10-09T09:43:01.705Z,25.23
2018-10-09T09:45:36.266Z,25.37
2018-10-09T09:48:10.930Z,32.53
2018-10-09T09:50:46.218Z,27.70
2018-10-09T09:53:20.875Z,30.53
2018-10-09T09:55:55.789Z,26.43
2018-10-09T09:58:30.452Z,28.73
2018-10-09T10:01:09.886Z,29.33
2018-10-09T10:03:48.147Z,28.57
2018-10-09T10:06:23.770Z,28.87
2018-10-09T10:08:58.396Z,32.23
2018-10-09T10:11:33.156Z,27.37
2018-10-09T10:14:08.203Z,26.83
2018-10-09T10:16:43.515Z,25.17
2018-10-09T10:19:18.181Z,23.07
2018-10-09T10:21:53.030Z,26.80
2018-10-09T10:24:27.549Z,29.83
2018-10-09T10:27:02.563Z,26.80
2018-10-09T10:29:37.033Z,26.37
2018-10-09T10:32:11.352Z,27.17
2018-10-09T10:34:45.816Z,25.37
2018-10-09T10:37:20.624Z,25.60
2018-10-09T10:39:55.476Z,22.47
2018-10-09T10:42:29.865Z,21.17
2018-10-09T10:45:04.441Z,22.10
2018-10-09T10:50:42.200Z,20.63
2018-10-09T10:53:16.652Z,19.77
2018-10-09T10:55:52.030Z,15.83
2018-10-09T10:58:26.649Z,17.60
2018-10-09T11:01:01.265Z,16.60
2018-10-09T11:03:35.845Z,20.23
2018-10-09T11:06:10.692Z,19.50
2018-10-09T11:08:45.141Z,17.10
2018-10-09T11:11:20.324Z,18.33
2018-10-09T11:13:54.844Z,18.60
2018-10-09T11:16:29.442Z,17.53
2018-10-09T11:19:03.884Z,16.80
2018-10-09T11:21:38.355Z,18.30
2018-10-09T11:24:13.309Z,20.27
2018-10-09T11:26:48.103Z,16.93
2018-10-09T11:29:27.363Z,19.63
2018-10-09T11:32:02.385Z,20.77
2018-10-09T11:34:37.884Z,20.47
2018-10-09T11:37:12.389Z,18.17
2018-10-09T11:39:46.957Z,17.80
2018-10-09T11:42:21.604Z,19.83
2018-10-09T11:44:56.074Z,21.97
2018-10-09T11:47:30.733Z,19.30
2018-10-09T11:50:05.901Z,19.67
2018-10-09T11:52:40.519Z,21.37
2018-10-09T11:55:15.354Z,17.77
2018-10-09T11:57:50.292Z,25.83
2018-10-09T12:00:24.966Z,18.77
2018-10-09T12:02:59.596Z,22.53
2018-10-09T12:05:34.112Z,22.63
2018-10-09T12:08:08.556Z,22.10
2018-10-09T12:10:43.306Z,22.27
2018-10-09T12:13:17.935Z,20.97
2018-10-09T12:15:52.613Z,20.27
2018-10-09T12:18:37.282Z,20.63
2018-10-09T12:21:11.861Z,18.90
2018-10-09T12:23:46.481Z,20.43
2018-10-09T12:26:21.150Z,19.67
2018-10-09T12:28:55.701Z,20.80
2018-10-09T12:31:30.594Z,21.93
2018-10-09T12:34:05.464Z,20.80
2018-10-09T12:36:40.150Z,17.37
2018-10-09T12:39:14.973Z,21.67
2018-10-09T12:41:49.616Z,19.50
2018-10-09T12:44:24.152Z,16.10
2018-10-09T12:46:59.281Z,18.27
2018-10-09T12:49:34.301Z,18.27
2018-10-09T12:52:09.032Z,18.10
2018-10-09T12:54:43.945Z,16.50
2018-10-09T12:57:18.827Z,20.40
2018-10-09T12:59:53.509Z,17.33
2018-10-09T13:02:28.264Z,16.20
2018-10-09T13:05:02.993Z,23.70
2018-10-09T13:07:37.629Z,16.33
2018-10-09T13:10:12.533Z,14.90
2018-10-09T13:12:47.094Z,16.60
2018-10-09T13:15:21.844Z,16.43
2018-10-09T13:17:56.497Z,13.07
2018-10-09T13:20:31.102Z,14.93
2018-10-09T13:23:05.626Z,14.73
2018-10-09T13:28:50.956Z,12.20
2018-10-09T13:31:25.670Z,12.97
2018-10-09T13:34:00.764Z,13.80
2018-10-09T13:36:35.228Z,10.93
2018-10-09T13:39:09.732Z,14.70
2018-10-09T13:41:44.461Z,13.27
2018-10-09T13:44:19.097Z,10.80
2018-10-09T13:46:55.049Z,10.27
2018-10-09T13:49:29.960Z,11.10
2018-10-09T13:52:04.529Z,12.23
2018-10-09T13:54:39.182Z,10.67
2018-10-09T13:57:13.863Z,10.57
2018-10-09T13:59:48.513Z,14.30
2018-10-09T14:02:22.874Z,10.93
2018-10-09T14:04:57.307Z,9.23
2018-10-09T14:07:31.913Z,9.97
2018-10-09T14:10:06.858Z,12.70
2018-10-09T14:12:41.474Z,8.93
2018-10-09T14:15:15.998Z,10.47
2018-10-09T14:17:50.511Z,9.83
2018-10-09T14:20:25.007Z,13.30
2018-10-09T14:22:59.597Z,15.67
2018-10-09T14:25:34.183Z,10.27
2018-10-09T14:28:09.153Z,10.20
2018-10-09T14:30:43.761Z,11.23
2018-10-09T14:33:18.485Z,9.23
2018-10-09T14:35:52.896Z,9.20
2018-10-09T14:38:27.597Z,10.00
2018-10-09T14:41:02.115Z,11.33
2018-10-09T14:43:36.784Z,12.03
2018-10-09T14:46:11.569Z,11.57
2018-10-09T14:48:46.622Z,10.43
2018-10-09T14:51:21.188Z,9.53
2018-10-09T14:53:56.043Z,9.30
2018-10-09T14:56:30.622Z,10.83
2018-10-09T14:59:05.286Z,9.53
2018-10-09T15:01:39.854Z,11.13
2018-10-09T15:04:14.408Z,8.93
2018-10-09T15:06:49.225Z,9.23
2018-10-09T15:09:23.754Z,10.63
2018-10-09T15:11:58.688Z,10.67
2018-10-09T15:14:33.176Z,8.30
2018-10-09T15:17:07.792Z,9.90
2018-10-09T15:19:42.229Z,8.53
2018-10-09T15:22:16.739Z,18.37
2018-10-09T15:24:51.621Z,13.20
2018-10-09T15:27:26.105Z,13.60
2018-10-09T15:33:03.207Z,11.27
2018-10-09T15:35:37.608Z,11.97
2018-10-09T15:38:19.157Z,10.50
2018-10-09T15:40:53.784Z,9.13
2018-10-09T15:43:28.495Z,8.50
2018-10-09T15:46:03.016Z,11.73
2018-10-09T15:48:37.532Z,10.90
2018-10-09T15:51:12.040Z,11.77
2018-10-09T15:53:46.579Z,10.80
2018-10-09T15:56:21.353Z,11.73
2018-10-09T15:58:56.025Z,13.10
2018-10-09T16:01:30.532Z,12.73
2018-10-09T16:04:05.105Z,11.57
2018-10-09T16:06:39.825Z,12.47
2018-10-09T16:09:14.519Z,12.90
2018-10-09T16:11:49.169Z,11.33
2018-10-09T16:14:23.896Z,12.07
2018-10-09T16:16:59.060Z,11.20
2018-10-09T16:19:33.576Z,10.67
2018-10-09T16:22:08.183Z,10.53
2018-10-09T16:24:43.044Z,9.63
2018-10-09T16:27:17.727Z,11.43
2018-10-09T16:29:52.429Z,9.67
2018-10-09T16:32:27.102Z,10.63
2018-10-09T16:35:01.610Z,13.37
2018-10-09T16:37:36.368Z,11.00
2018-10-09T16:40:10.972Z,11.43
2018-10-09T16:42:45.448Z,11.47
2018-10-09T16:45:22.468Z,12.40
2018-10-09T16:47:57.049Z,9.80
2018-10-09T16:50:31.571Z,13.40
2018-10-09T16:53:06.055Z,10.00
2018-10-09T16:55:56.394Z,9.00
2018-10-09T16:58:30.931Z,13.50
2018-10-09T17:01:05.460Z,12.63
2018-10-09T17:03:40.458Z,11.97
2018-10-09T17:06:19.835Z,11.63
2018-10-09T17:08:54.769Z,12.00
2018-10-09T17:11:29.381Z,10.30
2018-10-09T17:14:03.936Z,9.50
2018-10-09T17:16:38.598Z,17.30
2018-10-09T17:19:13.107Z,14.10
2018-10-09T17:21:47.638Z,13.57
2018-10-09T17:24:22.205Z,12.90
2018-10-09T17:26:57.075Z,12.23
2018-10-09T17:29:31.825Z,12.27
2018-10-09T17:32:06.591Z,14.77
2018-10-09T17:34:41.261Z,13.23
2018-10-09T17:37:15.900Z,11.80
2018-10-09T17:39:50.657Z,12.37
2018-10-09T17:42:25.687Z,12.60
2018-10-09T17:45:00.606Z,14.73
2018-10-09T17:47:35.194Z,14.40
2018-10-09T17:50:09.845Z,15.20
2018-10-09T17:52:44.651Z,14.17
2018-10-09T17:55:19.581Z,14.37
2018-10-09T17:57:54.320Z,15.90
2018-10-09T18:00:28.908Z,13.73
2018-10-09T18:03:03.656Z,16.67
2018-10-09T18:05:38.297Z,15.27
2018-10-09T18:08:13.941Z,14.73
2018-10-09T18:10:48.498Z,13.90
2018-10-09T18:13:23.049Z,13.83
2018-10-09T18:15:57.885Z,14.43
2018-10-09T18:18:32.630Z,15.37
2018-10-09T18:21:07.140Z,12.90
2018-10-09T18:23:41.765Z,16.00
2018-10-09T18:26:16.353Z,17.23
2018-10-09T18:28:51.010Z,13.27
2018-10-09T18:31:25.883Z,15.33
2018-10-09T18:34:00.268Z,15.03
2018-10-09T18:36:35.084Z,15.63
2018-10-09T18:39:11.841Z,15.47
2018-10-09T18:41:46.985Z,15.13
2018-10-09T18:44:21.461Z,15.20
2018-10-09T18:46:56.073Z,15.33
2018-10-09T18:49:30.659Z,21.30
2018-10-09T18:52:05.390Z,13.33
2018-10-09T18:54:40.021Z,15.77
2018-10-09T18:57:14.617Z,18.93
2018-10-09T18:59:49.249Z,18.83
2018-10-09T19:02:23.770Z,17.33
2018-10-09T19:04:58.271Z,17.53
2018-10-09T19:07:32.888Z,15.73
2018-10-09T19:10:07.698Z,18.13
2018-10-09T19:12:42.251Z,17.77
2018-10-09T19:15:16.922Z,17.40
2018-10-09T19:17:51.437Z,22.13
2018-10-09T19:20:25.975Z,18.90
2018-10-09T19:23:00.505Z,20.27
2018-10-09T19:25:35.184Z,19.17
2018-10-09T19:28:09.814Z,17.37
2018-10-09T19:30:44.453Z,20.73
2018-10-09T19:33:19.457Z,20.07
2018-10-09T19:35:54.225Z,20.47
2018-10-09T19:38:29.145Z,19.60
2018-10-09T19:41:03.662Z,21.37
2018-10-09T19:43:38.276Z,20.67
2018-10-09T19:46:13.036Z,18.23
2018-10-09T19:48:48.151Z,18.80
2018-10-09T19:51:22.951Z,27.03
2018-10-09T19:53:57.653Z,21.43
2018-10-09T19:56:32.699Z,20.70
2018-10-09T19:59:07.505Z,20.53
2018-10-09T20:01:42.005Z,18.43
2018-10-09T20:04:16.673Z,19.43
2018-10-09T20:06:51.289Z,21.50
2018-10-09T20:09:26.008Z,18.33
2018-10-09T20:12:00.745Z,18.53
2018-10-09T20:14:35.342Z,19.00
2018-10-09T20:17:09.993Z,20.73
2018-10-09T20:19:44.486Z,21.30
2018-10-09T20:22:19.062Z,18.87
2018-10-09T20:24:54.096Z,22.90
2018-10-09T20:27:28.645Z,20.30
2018-10-09T20:30:03.426Z,18.63
2018-10-09T20:32:38.112Z,21.87
2018-10-09T20:35:13.096Z,19.87
2018-10-09T20:37:47.540Z,20.60
2018-10-09T20:40:22.065Z,24.03
2018-10-09T20:42:56.752Z,20.93
2018-10-09T20:45:31.548Z,19.30
2018-10-09T20:48:06.580Z,19.73
2018-10-09T20:50:40.997Z,21.57
2018-10-09T20:53:15.930Z,21.67
2018-10-09T20:55:50.384Z,23.50
2018-10-09T20:58:24.897Z,21.33
2018-10-09T21:00:59.878Z,24.83
2018-10-09T21:03:34.574Z,21.23
2018-10-09T21:06:09.240Z,22.83
2018-10-09T21:08:43.936Z,24.33
2018-10-09T21:11:18.584Z,23.67
2018-10-09T21:13:53.143Z,21.87
2018-10-09T21:16:27.712Z,23.63
2018-10-09T21:19:02.260Z,23.60
2018-10-09T21:21:36.729Z,23.90
2018-10-09T21:24:11.213Z,25.80
2018-10-09T21:26:45.824Z,25.27
2018-10-09T21:29:20.600Z,25.27
2018-10-09T21:31:55.255Z,28.37
2018-10-09T21:34:29.970Z,27.87
2018-10-09T21:37:04.780Z,24.37
2018-10-09T21:39:39.413Z,26.70
2018-10-09T21:42:14.020Z,24.97
2018-10-09T21:44:48.604Z,26.03
2018-10-09T21:47:23.292Z,24.67
2018-10-09T21:49:57.958Z,27.73
2018-10-09T21:52:32.579Z,23.87
2018-10-09T21:55:07.176Z,25.00
2018-10-09T21:57:41.856Z,27.33
2018-10-09T22:00:16.769Z,25.70
2018-10-09T22:02:51.332Z,23.23
2018-10-09T22:05:25.949Z,26.37
2018-10-09T22:08:00.672Z,26.40
2018-10-09T22:10:35.380Z,29.93
2018-10-09T22:13:09.926Z,24.83
2018-10-09T22:15:44.648Z,24.03
2018-10-09T22:18:19.088Z,27.80
2018-10-09T22:20:53.765Z,25.63
2018-10-09T22:23:29.036Z,29.77
2018-10-09T22:26:03.498Z,29.90
2018-10-09T22:28:38.360Z,28.83
2018-10-09T22:31:13.254Z,30.07
2018-10-09T22:33:47.865Z,29.27
2018-10-09T22:36:22.341Z,31.70
2018-10-09T22:38:57.158Z,30.07
2018-10-09T22:41:31.693Z,27.57
2018-10-09T22:44:06.354Z,29.50
2018-10-09T22:46:40.990Z,30.87
2018-10-09T22:49:16.064Z,34.13
2018-10-09T22:51:50.476Z,30.93
2018-10-09T22:54:25.442Z,32.63
2018-10-09T22:56:59.985Z,31.27
2018-10-09T22:59:34.648Z,32.17
2018-10-09T23:02:09.235Z,33.13
2018-10-09T23:04:43.927Z,31.77
2018-10-09T23:07:18.585Z,33.53
2018-10-09T23:09:53.021Z,32.33
2018-10-09T23:12:27.908Z,34.90
2018-10-09T23:15:02.475Z,30.53
2018-10-09T23:17:37.144Z,33.23
2018-10-09T23:20:11.664Z,34.03
2018-10-09T23:22:46.317Z,34.03
2018-10-09T23:25:20.980Z,33.77
2018-10-09T23:27:55.553Z,34.27
2018-10-09T23:30:30.206Z,32.87
2018-10-09T23:33:05.064Z,32.93
2018-10-09T23:35:39.518Z,32.10
2018-10-09T23:38:14.078Z,35.13
2018-10-09T23:40:48.937Z,36.03
2018-10-09T23:43:23.905Z,33.80
2018-10-09T23:45:58.440Z,36.07
2018-10-09T23:48:32.923Z,32.53
2018-10-09T23:51:07.532Z,35.47
2018-10-09T23:53:42.170Z,33.33
2018-10-09T23:56:23.782Z,33.40
2018-10-09T23:58:59.766Z,34.40
